Time;durP1;ratioP1;P1;durP2;ratioP2;P2;SDS_P1;SDS_P2;PMS_P1;PMS_P2;Temp;Humidity;BMP_temperature;BMP_pressure;BME280_temperature;BME280_humidity;BME280_pressure;Samples;Min_cycle;Max_cycle;Signal;HPM_P1;HPM_P2
2023/10/05 00:01:27;;;;;;;10.87;3.87;;;;;;;13.29;84.12;101424.97;5111534;28;20206;-79
2023/10/05 00:03:54;;;;;;;9.30;3.57;;;;;;;13.34;83.72;101430.91;5110245;28;20245;-79
2023/10/05 00:06:24;;;;;;;9.77;3.47;;;;;;;13.28;84.06;101431.28;5113135;28;20278;-79
2023/10/05 00:08:52;;;;;;;6.53;3.23;;;;;;;13.28;84.38;101436.63;5109420;28;20212;-79
2023/10/05 00:11:23;;;;;;;9.83;3.60;;;;;;;13.28;84.46;101426.78;5113679;28;20218;-79
2023/10/05 00:13:52;;;;;;;9.17;3.57;;;;;;;13.28;84.66;101416.09;5108687;28;20224;-79
2023/10/05 00:16:21;;;;;;;8.63;4.37;;;;;;;13.29;84.67;101414.28;5110976;28;20259;-79
2023/10/05 00:18:49;;;;;;;6.37;3.43;;;;;;;13.29;84.60;101424.97;5111703;28;20667;-79
2023/10/05 00:21:19;;;;;;;10.53;3.40;;;;;;;13.29;84.56;101433.00;5109319;28;20256;-80
2023/10/05 00:23:50;;;;;;;9.03;3.17;;;;;;;13.31;84.44;101413.22;5111060;28;20210;-80
2023/10/05 00:26:20;;;;;;;8.10;3.17;;;;;;;13.28;84.68;101421.44;5108394;28;20224;-79
2023/10/05 00:28:55;;;;;;;10.23;3.13;;;;;;;13.26;84.74;101393.91;5112013;28;20210;-79
2023/10/05 00:31:24;;;;;;;6.10;2.90;;;;;;;13.27;84.70;101397.47;5111664;28;20226;-79
2023/10/05 00:33:51;;;;;;;9.77;3.30;;;;;;;13.25;84.95;101400.25;5114666;28;20215;-79
2023/10/05 00:36:24;;;;;;;6.67;2.70;;;;;;;13.23;84.75;101393.28;5111915;28;20699;-79
2023/10/05 00:38:50;;;;;;;8.40;4.00;;;;;;;13.21;85.04;101393.38;5114546;28;20752;-79
2023/10/05 00:41:17;;;;;;;8.80;2.97;;;;;;;13.20;85.12;101400.53;5113097;28;20204;-79
2023/10/05 00:43:46;;;;;;;7.53;3.57;;;;;;;13.25;85.03;101397.59;5112188;28;20207;-78
2023/10/05 00:46:13;;;;;;;7.93;3.57;;;;;;;13.26;84.45;101401.09;5108781;28;20814;-79
2023/10/05 00:48:56;;;;;;;10.93;3.87;;;;;;;13.25;84.71;101402.06;5111494;28;20214;-79
2023/10/05 00:51:30;;;;;;;9.60;3.23;;;;;;;13.23;84.52;101406.66;5112742;28;20216;-79
2023/10/05 00:53:58;;;;;;;8.67;3.07;;;;;;;13.20;85.02;101405.88;5114081;28;20268;-79
2023/10/05 00:56:28;;;;;;;7.43;3.30;;;;;;;13.22;84.64;101404.94;5109381;28;20224;-79
2023/10/05 00:59:04;;;;;;;6.70;2.73;;;;;;;13.22;84.57;101403.13;5114584;28;20589;-79
2023/10/05 01:01:35;;;;;;;9.10;4.17;;;;;;;13.24;84.36;101401.22;5113034;28;20198;-79
2023/10/05 01:04:23;;;;;;;6.93;3.13;;;;;;;13.24;84.45;101400.34;5111335;28;20288;-79
2023/10/05 01:06:55;;;;;;;8.37;2.77;;;;;;;13.23;84.52;101395.94;5111588;28;20549;-79
2023/10/05 01:09:55;;;;;;;6.90;2.87;;;;;;;13.22;84.59;101395.09;5111783;28;20199;-79
2023/10/05 01:12:26;;;;;;;8.50;3.37;;;;;;;13.25;84.94;101399.41;5111666;28;20231;-80
2023/10/05 01:14:53;;;;;;;9.40;3.27;;;;;;;13.24;84.72;101390.50;5116333;28;20251;-80
2023/10/05 01:17:21;;;;;;;7.43;2.83;;;;;;;13.23;85.12;101388.78;5114187;28;20219;-79
2023/10/05 01:19:56;;;;;;;10.47;2.93;;;;;;;13.25;85.29;101380.66;5111327;28;20279;-79
2023/10/05 01:22:23;;;;;;;7.80;3.20;;;;;;;13.29;84.87;101388.38;5113660;28;20203;-79
2023/10/05 01:24:52;;;;;;;7.87;2.87;;;;;;;13.26;85.01;101401.94;5112019;28;20240;-79
2023/10/05 01:27:19;;;;;;;9.83;3.20;;;;;;;13.26;85.69;101395.72;5115840;28;20196;-79
2023/10/05 01:29:45;;;;;;;6.30;2.77;;;;;;;13.24;85.32;101392.31;5114355;28;20239;-80
2023/10/05 01:32:15;;;;;;;8.13;2.90;;;;;;;13.26;85.39;101401.94;5112316;28;20654;-79
2023/10/05 01:34:42;;;;;;;6.97;2.90;;;;;;;13.27;85.55;101397.47;5111098;28;20204;-79
2023/10/05 01:37:09;;;;;;;7.30;3.20;;;;;;;13.27;85.41;101386.75;5110105;28;20224;-79
2023/10/05 01:39:43;;;;;;;11.50;3.30;;;;;;;13.29;85.72;101382.16;5112925;28;20200;-78
2023/10/05 01:42:11;;;;;;;7.80;3.30;;;;;;;13.27;85.57;101382.25;5115302;28;20196;-78
2023/10/05 01:44:40;;;;;;;6.43;2.93;;;;;;;13.30;85.66;101367.84;5113781;28;20219;-79
2023/10/05 01:47:07;;;;;;;7.77;2.73;;;;;;;13.33;85.84;101370.31;5114129;28;20669;-78
2023/10/05 01:49:34;;;;;;;7.20;3.37;;;;;;;13.34;85.61;101372.06;5111130;28;20243;-79
2023/10/05 01:52:00;;;;;;;13.10;4.37;;;;;;;13.32;85.96;101372.16;5110843;28;20218;-79
2023/10/05 01:54:28;;;;;;;9.70;3.30;;;;;;;13.33;85.74;101362.31;5114105;28;20214;-79
2023/10/05 01:56:56;;;;;;;8.77;3.07;;;;;;;13.36;86.28;101362.13;5115319;28;20281;-79
2023/10/05 01:59:24;;;;;;;8.27;2.93;;;;;;;13.37;86.06;101358.47;5111234;28;20617;-79
2023/10/05 02:01:53;;;;;;;7.03;3.47;;;;;;;13.39;85.84;101361.91;5109042;28;20651;-79
2023/10/05 02:04:22;;;;;;;6.33;3.00;;;;;;;13.39;86.02;101356.56;5106415;28;20770;-79
2023/10/05 02:06:49;;;;;;;7.30;3.20;;;;;;;13.38;86.51;101362.88;5113078;28;20219;-79
2023/10/05 02:09:19;;;;;;;7.30;3.87;;;;;;;13.39;86.97;101361.91;5110672;28;20239;-79
2023/10/05 02:11:47;;;;;;;8.93;3.13;;;;;;;13.42;86.95;101354.56;5112055;28;20211;-79
2023/10/05 02:14:15;;;;;;;11.97;3.80;;;;;;;13.44;86.84;101367.81;5111871;28;20207;-79
2023/10/05 02:16:48;;;;;;;8.63;3.33;;;;;;;13.42;86.78;101362.59;5115332;28;20292;-79
2023/10/05 02:19:14;;;;;;;6.90;3.10;;;;;;;13.49;86.98;101358.56;5113010;28;20736;-79
2023/10/05 02:21:42;;;;;;;9.20;3.53;;;;;;;13.48;87.36;101354.16;5110055;28;20231;-79
2023/10/05 02:24:16;;;;;;;7.83;3.50;;;;;;;13.47;87.23;101351.56;5112254;28;20204;-79
2023/10/05 02:26:54;;;;;;;9.13;3.43;;;;;;;13.46;87.95;101360.56;5117540;28;20238;-79
2023/10/05 02:29:21;;;;;;;8.03;3.50;;;;;;;13.47;87.95;101349.75;5113486;28;20294;-79
2023/10/05 02:31:57;;;;;;;12.53;3.40;;;;;;;13.47;87.78;101341.72;5111935;28;20289;-79
2023/10/05 02:34:23;;;;;;;9.40;3.50;;;;;;;13.45;88.24;101337.44;5112255;28;20302;-79
2023/10/05 02:36:50;;;;;;;7.53;3.70;;;;;;;13.43;88.09;101334.03;5115908;28;20223;-79
2023/10/05 02:39:21;;;;;;;8.87;4.20;;;;;;;13.49;87.50;101339.81;5114103;28;20204;-80
2023/10/05 02:41:50;;;;;;;8.57;3.83;;;;;;;13.51;87.38;101342.41;5112981;28;20523;-79
2023/10/05 02:44:19;;;;;;;9.00;4.47;;;;;;;13.52;87.27;101338.75;5112095;28;20195;-79
2023/10/05 02:46:47;;;;;;;8.17;3.67;;;;;;;13.52;87.55;101331.59;5110994;28;20232;-79
2023/10/05 02:49:16;;;;;;;6.87;4.10;;;;;;;13.53;87.12;101335.13;5118758;28;20234;-80
2023/10/05 02:51:43;;;;;;;6.00;2.93;;;;;;;13.55;87.14;101328.72;5110089;28;20232;-79
2023/10/05 02:54:10;;;;;;;9.47;3.73;;;;;;;13.58;87.29;101332.16;5112594;28;20204;-79
2023/10/05 02:56:40;;;;;;;8.20;3.83;;;;;;;13.59;87.12;101333.88;5111279;28;20239;-79
2023/10/05 02:59:09;;;;;;;8.33;3.17;;;;;;;13.61;86.56;101340.84;5108694;28;20200;-79
2023/10/05 03:01:37;;;;;;;9.37;3.03;;;;;;;13.61;86.74;101331.97;5115537;28;20200;-79
2023/10/05 03:04:09;;;;;;;12.80;3.50;;;;;;;13.60;86.52;101336.47;5114455;28;20199;-80
2023/10/05 03:06:39;;;;;;;12.13;3.33;;;;;;;13.60;86.95;101333.78;5117377;28;20405;-79
2023/10/05 03:09:07;;;;;;;6.23;2.80;;;;;;;13.62;86.32;101331.84;5119365;28;20207;-79
2023/10/05 03:11:38;;;;;;;10.80;3.57;;;;;;;13.64;86.49;101329.94;5110797;28;20207;-79
2023/10/05 03:14:05;;;;;;;7.33;3.50;;;;;;;13.65;86.37;101325.44;5111773;28;20196;-80
2023/10/05 03:16:35;;;;;;;9.47;3.73;;;;;;;13.67;86.38;101321.69;5110842;28;20318;-79
2023/10/05 03:19:01;;;;;;;7.50;2.90;;;;;;;13.67;85.83;101316.34;5110228;28;20207;-79
2023/10/05 03:21:28;;;;;;;10.57;3.40;;;;;;;13.66;86.15;101322.66;5113660;28;20676;-79
2023/10/05 03:23:56;;;;;;;7.67;3.00;;;;;;;13.65;85.87;101317.41;5115317;28;20213;-79
2023/10/05 03:26:23;;;;;;;10.43;3.50;;;;;;;13.72;85.69;101324.94;5112426;28;20280;-79
2023/10/05 03:28:49;;;;;;;9.83;3.63;;;;;;;13.74;85.53;101317.66;5117711;28;20200;-79
2023/10/05 03:31:24;;;;;;;8.00;3.20;;;;;;;13.70;85.64;101321.50;5115043;28;20206;-80
2023/10/05 03:33:52;;;;;;;8.73;2.93;;;;;;;13.70;85.31;101320.66;5111011;28;20205;-79
2023/10/05 03:36:19;;;;;;;7.23;2.50;;;;;;;13.70;85.78;101317.97;5114297;28;20518;-79
2023/10/05 03:38:55;;;;;;;11.13;3.03;;;;;;;13.73;85.41;101331.16;5109754;28;20228;-79
2023/10/05 03:41:26;;;;;;;7.37;3.27;;;;;;;13.70;85.67;101320.66;5115583;28;20269;-79
2023/10/05 03:43:53;;;;;;;6.00;2.80;;;;;;;13.71;85.34;101323.22;5112859;28;20215;-79
2023/10/05 03:46:19;;;;;;;4.27;2.20;;;;;;;13.72;85.70;101313.38;5108251;28;20371;-79
2023/10/05 03:48:46;;;;;;;7.93;2.97;;;;;;;13.73;85.56;101321.31;5109145;28;20200;-78
2023/10/05 03:51:16;;;;;;;6.73;2.60;;;;;;;13.73;85.66;101326.66;5105376;28;20219;-79
2023/10/05 03:53:51;;;;;;;8.10;2.53;;;;;;;13.72;85.56;101313.38;5108533;28;20216;-79
2023/10/05 03:56:21;;;;;;;7.47;2.70;;;;;;;13.72;84.89;101318.72;5109555;28;20218;-79
2023/10/05 03:58:49;;;;;;;8.57;2.50;;;;;;;13.74;84.95;101322.16;5110570;28;20239;-79
2023/10/05 04:01:17;;;;;;;6.60;2.50;;;;;;;13.74;84.88;101311.47;5114975;28;20203;-79
2023/10/05 04:03:46;;;;;;;8.83;2.83;;;;;;;13.74;84.80;101319.50;5112021;28;20244;-79
2023/10/05 04:06:18;;;;;;;5.20;2.70;;;;;;;13.71;85.17;101315.19;5111553;28;20633;-80
2023/10/05 04:08:51;;;;;;;6.53;3.23;;;;;;;13.73;85.64;101307.94;5111560;28;20199;-79
2023/10/05 04:11:21;;;;;;;10.30;2.63;;;;;;;13.74;85.47;101314.13;5111130;28;20219;-80
2023/10/05 04:13:50;;;;;;;7.90;3.20;;;;;;;13.74;85.03;101309.66;5114166;28;20211;-80
2023/10/05 04:16:26;;;;;;;5.10;2.97;;;;;;;13.73;85.19;101318.63;5112649;28;20220;-80
2023/10/05 04:18:53;;;;;;;7.90;3.40;;;;;;;13.72;85.30;101313.38;5115283;28;20219;-79
2023/10/05 04:21:22;;;;;;;7.17;3.50;;;;;;;13.70;85.40;101305.44;5118846;28;20571;-80
2023/10/05 04:23:49;;;;;;;6.83;3.20;;;;;;;13.70;85.42;101304.59;5117476;28;20207;-79
2023/10/05 04:26:19;;;;;;;7.23;3.47;;;;;;;13.70;85.77;101304.59;5116279;28;20216;-79
2023/10/05 04:28:54;;;;;;;6.83;3.33;;;;;;;13.66;85.77;101297.72;5115918;28;20208;-79
2023/10/05 04:31:24;;;;;;;7.80;3.27;;;;;;;13.67;85.78;101296.75;5113338;28;20199;-79
2023/10/05 04:33:52;;;;;;;6.67;3.17;;;;;;;13.66;85.80;101293.22;5122397;27;20203;-79
2023/10/05 04:36:19;;;;;;;9.47;3.80;;;;;;;13.63;86.14;101293.41;5114708;28;20223;-79
2023/10/05 04:38:46;;;;;;;5.27;3.40;;;;;;;13.63;86.11;101296.09;5116067;28;20647;-79
2023/10/05 04:41:13;;;;;;;8.50;3.50;;;;;;;13.61;86.13;101291.81;5111272;28;20195;-79
2023/10/05 04:43:39;;;;;;;9.33;4.60;;;;;;;13.60;86.32;101299.00;5112451;28;20291;-79
2023/10/05 04:46:07;;;;;;;9.30;3.80;;;;;;;13.60;86.28;101288.28;5109219;28;20215;-80
2023/10/05 04:48:34;;;;;;;11.00;4.20;;;;;;;13.58;86.49;101286.66;5104515;28;20227;-80
2023/10/05 04:51:02;;;;;;;9.13;4.33;;;;;;;13.56;86.75;101281.41;5102238;28;20207;-80
2023/10/05 04:53:30;;;;;;;8.47;4.77;;;;;;;13.54;87.29;101294.03;5106288;28;20218;-80
2023/10/05 04:56:10;;;;;;;9.03;5.30;;;;;;;13.51;87.46;101292.41;5111382;28;20219;-80
2023/10/05 04:58:53;;;;;;;6.17;4.87;;;;;;;13.51;87.69;101288.88;5105305;28;20264;-80
2023/10/05 05:01:28;;;;;;;9.37;4.93;;;;;;;13.52;87.76;101294.13;5101099;28;20199;-80
2023/10/05 05:03:56;;;;;;;6.67;5.70;;;;;;;13.50;88.42;101289.84;5107928;28;20724;-80
2023/10/05 05:06:25;;;;;;;7.70;4.97;;;;;;;13.48;88.38;101289.06;5105920;28;20220;-80
2023/10/05 05:08:53;;;;;;;9.00;5.53;;;;;;;13.47;88.75;101292.69;5108717;28;20808;-80
2023/10/05 05:11:20;;;;;;;13.90;5.60;;;;;;;13.44;88.90;101292.91;5099632;27;20204;-79
2023/10/05 05:13:47;;;;;;;8.43;5.40;;;;;;;13.42;89.01;101294.84;5104045;28;20243;-79
2023/10/05 05:16:14;;;;;;;10.70;5.97;;;;;;;13.44;89.44;101300.91;5111150;28;20247;-79
2023/10/05 05:18:42;;;;;;;11.80;5.40;;;;;;;13.41;89.35;101295.78;5102128;28;20224;-79
2023/10/05 05:21:11;;;;;;;8.40;6.20;;;;;;;13.40;89.48;101299.44;5108609;28;20272;-80
2023/10/05 05:23:39;;;;;;;10.17;7.23;;;;;;;13.37;89.82;101307.66;5107358;28;20211;-80
2023/10/05 05:26:09;;;;;;;13.17;7.50;;;;;;;13.39;90.45;101303.06;5110953;28;20219;-80
2023/10/05 05:28:37;;;;;;;10.67;7.10;;;;;;;13.38;90.14;101302.19;5109067;28;20272;-79
2023/10/05 05:31:14;;;;;;;8.53;6.97;;;;;;;13.38;89.92;101299.53;5107509;28;20207;-80
2023/10/05 05:33:44;;;;;;;9.27;7.10;;;;;;;13.35;90.04;101291.69;5110894;28;20195;-80
2023/10/05 05:36:13;;;;;;;12.47;7.17;;;;;;;13.38;90.45;101293.31;5112035;28;20295;-81
2023/10/05 05:38:40;;;;;;;15.43;8.17;;;;;;;13.36;89.98;101295.22;5109074;28;20219;-81
2023/10/05 05:41:12;;;;;;;10.07;7.40;;;;;;;13.34;90.18;101292.66;5110069;27;20230;-80
2023/10/05 05:43:40;;;;;;;9.60;7.07;;;;;;;13.34;89.98;101297.13;5107628;28;20203;-80
2023/10/05 05:46:11;;;;;;;10.77;7.03;;;;;;;13.34;89.81;101294.47;5106504;28;20232;-81
2023/10/05 05:48:38;;;;;;;10.23;7.33;;;;;;;13.33;89.60;101296.28;5105847;28;20209;-80
2023/10/05 05:51:10;;;;;;;11.30;7.47;;;;;;;13.33;89.92;101293.59;5107812;27;20207;-81
2023/10/05 05:53:38;;;;;;;6.90;6.00;;;;;;;13.37;89.90;101296.94;5108935;27;20210;-80
2023/10/05 05:56:05;;;;;;;12.27;7.63;;;;;;;13.36;89.82;101292.56;5108642;28;20219;-80
2023/10/05 05:58:31;;;;;;;14.03;6.60;;;;;;;13.34;89.75;101294.47;5099212;28;20232;-80
2023/10/05 06:00:58;;;;;;;8.53;5.80;;;;;;;13.35;89.89;101296.19;5111003;28;20199;-80
2023/10/05 06:03:25;;;;;;;7.73;5.70;;;;;;;13.35;89.84;101304.22;5099541;28;20261;-80
2023/10/05 06:05:53;;;;;;;9.47;5.47;;;;;;;13.37;89.80;101296.94;5110533;28;20223;-80
2023/10/05 06:08:19;;;;;;;8.30;5.23;;;;;;;13.38;90.04;101304.03;5105001;28;20204;-81
2023/10/05 06:10:47;;;;;;;8.03;5.07;;;;;;;13.36;89.73;101304.13;5102007;28;20201;-80
2023/10/05 06:13:13;;;;;;;5.90;4.30;;;;;;;13.38;89.20;101314.72;5105828;28;20302;-79
2023/10/05 06:15:40;;;;;;;7.83;5.23;;;;;;;13.39;89.34;101313.75;5108694;28;20279;-79
2023/10/05 06:18:07;;;;;;;7.93;4.27;;;;;;;13.40;88.83;101312.81;5108719;28;20219;-81
2023/10/05 06:20:33;;;;;;;6.30;3.90;;;;;;;13.39;89.47;101311.94;5110702;28;20827;-81
2023/10/05 06:23:00;;;;;;;8.37;4.93;;;;;;;13.42;89.00;101310.91;5110097;28;20207;-80
2023/10/05 06:25:26;;;;;;;9.20;3.67;;;;;;;13.45;89.39;101308.00;5101691;28;20224;-80
2023/10/05 06:27:54;;;;;;;6.77;3.53;;;;;;;13.47;89.31;101306.09;5108262;28;20200;-81
2023/10/05 06:30:21;;;;;;;5.53;3.80;;;;;;;13.49;88.37;101315.72;5108194;28;20200;-81
2023/10/05 06:32:48;;;;;;;8.23;3.80;;;;;;;13.53;88.62;101309.22;5105879;28;20208;-79
2023/10/05 06:35:14;;;;;;;6.17;3.80;;;;;;;13.55;89.11;101318.03;5108551;28;20224;-80
2023/10/05 06:37:42;;;;;;;7.73;3.60;;;;;;;13.61;88.29;101322.13;5108705;28;20203;-79
2023/10/05 06:40:09;;;;;;;5.80;3.37;;;;;;;13.61;88.03;101319.44;5103784;28;20215;-79
2023/10/05 06:42:37;;;;;;;7.67;3.50;;;;;;;13.62;87.83;101325.63;5098694;28;20738;-79
2023/10/05 06:45:07;;;;;;;5.40;3.90;;;;;;;13.61;87.76;101332.84;5103305;28;20224;-79
2023/10/05 06:47:38;;;;;;;5.87;3.80;;;;;;;13.62;88.60;101323.81;5107454;28;20680;-79
2023/10/05 06:50:08;;;;;;;5.43;3.70;;;;;;;13.63;88.55;101320.19;5107772;28;20208;-79
2023/10/05 06:52:39;;;;;;;5.43;3.33;;;;;;;13.64;89.03;101319.22;5103931;28;20735;-79
2023/10/05 06:55:07;;;;;;;5.30;3.20;;;;;;;13.66;89.02;101322.66;5101515;28;20224;-80
2023/10/05 06:57:35;;;;;;;4.33;3.60;;;;;;;13.67;89.36;101316.34;5102260;28;20199;-79
2023/10/05 07:00:11;;;;;;;4.07;3.57;;;;;;;13.72;89.63;101321.41;5105414;28;20647;-79
2023/10/05 07:02:38;;;;;;;4.30;3.17;;;;;;;13.77;89.72;101321.97;5101174;28;20195;-79
2023/10/05 07:05:05;;;;;;;6.43;4.10;;;;;;;13.79;90.25;101320.06;5106373;28;20223;-79
2023/10/05 07:07:32;;;;;;;5.47;4.93;;;;;;;13.81;89.96;101318.97;5107188;28;20198;-79
2023/10/05 07:09:58;;;;;;;6.17;5.57;;;;;;;13.82;90.22;101328.72;5107306;28;20199;-79
2023/10/05 07:12:25;;;;;;;8.63;6.20;;;;;;;13.82;90.31;101331.41;5107480;28;20203;-80
2023/10/05 07:14:52;;;;;;;8.83;6.83;;;;;;;13.86;90.33;101324.88;5106195;28;20228;-80
2023/10/05 07:17:19;;;;;;;9.87;7.40;;;;;;;13.89;89.98;101343.44;5107939;28;20286;-80
2023/10/05 07:19:49;;;;;;;8.73;7.50;;;;;;;13.90;90.15;101337.13;5099095;28;20248;-80
2023/10/05 07:22:16;;;;;;;10.83;7.83;;;;;;;13.93;89.40;101343.22;5104156;28;20248;-79
2023/10/05 07:24:42;;;;;;;9.97;8.23;;;;;;;13.95;89.45;101336.81;5107016;28;20215;-79
2023/10/05 07:27:09;;;;;;;9.87;8.17;;;;;;;14.01;88.85;101341.75;5106231;28;20674;-79
2023/10/05 07:29:36;;;;;;;10.80;8.30;;;;;;;14.04;87.71;101349.59;5107602;28;20207;-79
2023/10/05 07:32:05;;;;;;;9.07;8.17;;;;;;;14.09;87.52;101351.97;5108984;28;20203;-80
2023/10/05 07:34:34;;;;;;;9.37;8.03;;;;;;;14.13;87.26;101358.84;5101035;28;20280;-80
2023/10/05 07:37:01;;;;;;;10.80;8.23;;;;;;;14.20;86.36;101357.44;5106822;28;20698;-79
2023/10/05 07:39:28;;;;;;;13.23;7.90;;;;;;;14.25;85.38;101366.91;5110668;28;20699;-80
2023/10/05 07:41:55;;;;;;;10.50;8.70;;;;;;;14.30;85.29;101365.75;5114283;28;20286;-79
2023/10/05 07:44:21;;;;;;;10.97;8.50;;;;;;;14.32;84.57;101378.06;5104892;28;20200;-80
2023/10/05 07:46:48;;;;;;;12.60;8.30;;;;;;;14.37;83.98;101370.56;5112801;28;20215;-80
2023/10/05 07:49:14;;;;;;;13.13;7.63;;;;;;;14.44;84.36;101366.56;5113555;28;20191;-80
2023/10/05 07:51:42;;;;;;;13.47;8.87;;;;;;;14.50;84.07;101379.53;5112500;28;20222;-80
2023/10/05 07:54:09;;;;;;;11.90;8.60;;;;;;;14.54;83.40;101378.34;5109121;28;20214;-80
2023/10/05 07:56:35;;;;;;;11.97;8.03;;;;;;;14.57;83.56;101388.00;5106501;28;20219;-79
2023/10/05 07:59:02;;;;;;;9.13;8.10;;;;;;;14.63;83.84;101382.25;5111772;28;20233;-79
2023/10/05 08:01:28;;;;;;;12.47;8.03;;;;;;;14.71;82.53;101395.09;5110831;28;20210;-81
2023/10/05 08:03:55;;;;;;;11.10;7.80;;;;;;;14.79;82.28;101396.31;5107279;28;20203;-80
2023/10/05 08:06:21;;;;;;;11.87;7.40;;;;;;;14.82;82.27;101392.56;5111710;28;20230;-79
2023/10/05 08:08:49;;;;;;;9.37;7.50;;;;;;;14.87;82.02;101390.38;5109501;28;20200;-79
2023/10/05 08:11:16;;;;;;;9.67;7.83;;;;;;;14.93;82.40;101398.88;5109674;28;20775;-79
2023/10/05 08:13:43;;;;;;;12.03;8.83;;;;;;;15.00;82.56;101393.97;5111000;28;20275;-80
2023/10/05 08:16:10;;;;;;;8.40;7.07;;;;;;;15.07;81.29;101403.28;5108566;28;20221;-80
2023/10/05 08:18:37;;;;;;;10.90;6.63;;;;;;;15.12;80.80;101403.81;5107422;28;20208;-79
2023/10/05 08:21:04;;;;;;;8.90;7.00;;;;;;;15.15;80.39;101408.97;5109257;28;20211;-79
2023/10/05 08:23:31;;;;;;;9.30;7.13;;;;;;;15.21;80.72;101405.00;5105597;28;20211;-79
2023/10/05 08:25:58;;;;;;;9.10;6.20;;;;;;;15.26;80.18;101400.16;5107249;28;20730;-80
2023/10/05 08:28:25;;;;;;;13.30;7.10;;;;;;;15.31;78.89;101411.44;5106863;28;20573;-80
2023/10/05 08:31:04;;;;;;;10.00;6.77;;;;;;;15.36;78.78;101401.22;5109802;28;20210;-80
2023/10/05 08:33:33;;;;;;;9.87;6.90;;;;;;;15.43;78.25;101401.63;5105945;28;20663;-80
2023/10/05 08:36:00;;;;;;;11.20;7.13;;;;;;;15.52;77.64;101400.97;5111424;28;20701;-80
2023/10/05 08:38:27;;;;;;;11.77;6.40;;;;;;;15.59;77.41;101404.97;5108987;28;20232;-79
2023/10/05 08:40:54;;;;;;;11.10;6.83;;;;;;;15.65;76.96;101412.56;5111370;28;20753;-79
2023/10/05 08:43:22;;;;;;;8.83;6.13;;;;;;;15.72;77.10;101416.53;5107124;28;20297;-80
2023/10/05 08:45:51;;;;;;;9.47;6.30;;;;;;;15.74;76.23;101419.97;5110003;28;20218;-80
2023/10/05 08:48:22;;;;;;;11.40;6.57;;;;;;;15.77;76.57;101417.03;5112962;28;20201;-80
2023/10/05 08:50:56;;;;;;;11.03;6.33;;;;;;;15.84;76.58;101412.97;5107588;28;20209;-81
2023/10/05 08:53:23;;;;;;;7.87;5.67;;;;;;;15.91;76.03;101424.97;5109277;28;20208;-80
2023/10/05 08:55:52;;;;;;;7.23;5.50;;;;;;;15.98;75.93;101422.69;5104109;28;20225;-80
2023/10/05 08:58:20;;;;;;;7.90;5.70;;;;;;;16.05;74.88;101432.03;5112221;28;20205;-80
2023/10/05 09:00:49;;;;;;;8.53;6.00;;;;;;;16.09;74.60;101435.34;5106118;28;20226;-80
2023/10/05 09:03:29;;;;;;;8.67;5.73;;;;;;;16.16;74.40;101433.91;5109192;28;20199;-79
2023/10/05 09:06:13;;;;;;;8.00;5.63;;;;;;;16.25;74.59;101446.66;5107337;28;20291;-80
2023/10/05 09:08:51;;;;;;;9.23;6.13;;;;;;;16.32;73.72;101447.91;5104736;28;20676;-80
2023/10/05 09:11:20;;;;;;;9.43;6.57;;;;;;;16.38;73.68;101450.16;5109844;28;20192;-80
2023/10/05 09:13:47;;;;;;;8.20;6.10;;;;;;;16.41;73.40;101451.75;5108438;28;20208;-80
2023/10/05 09:16:22;;;;;;;9.73;5.80;;;;;;;16.48;74.32;101447.63;5109108;28;20231;-82
2023/10/05 09:18:49;;;;;;;7.83;6.10;;;;;;;16.56;73.81;101455.97;5106184;28;20196;-80
2023/10/05 09:21:19;;;;;;;7.47;5.50;;;;;;;16.63;73.66;101463.50;5111172;28;20900;-79
2023/10/05 09:23:47;;;;;;;10.23;5.57;;;;;;;16.66;72.69;101457.88;5108302;28;20245;-79
2023/10/05 09:26:33;;;;;;;7.13;4.80;;;;;;;16.69;72.59;101458.59;5104684;28;20267;-80
2023/10/05 09:29:21;;;;;;;8.63;5.37;;;;;;;16.70;72.70;101458.50;5107243;28;20194;-80
2023/10/05 09:31:54;;;;;;;12.37;5.67;;;;;;;16.73;72.34;101460.97;5108859;28;20230;-81
2023/10/05 09:34:39;;;;;;;8.10;4.70;;;;;;;16.73;72.29;101465.47;5107663;28;20235;-81
2023/10/05 09:37:07;;;;;;;9.10;4.30;;;;;;;16.73;71.66;101471.72;5107906;28;20270;-80
2023/10/05 09:39:42;;;;;;;6.13;4.13;;;;;;;16.74;71.73;101469.88;5108757;28;20327;-80
2023/10/05 09:42:13;;;;;;;6.97;4.43;;;;;;;16.78;71.87;101476.75;5105120;28;20210;-81
2023/10/05 09:44:53;;;;;;;5.83;3.40;;;;;;;16.81;71.83;101474.69;5106703;28;20202;-80
2023/10/05 09:47:26;;;;;;;7.27;3.63;;;;;;;16.78;70.72;101471.38;5111559;28;20206;-80
2023/10/05 09:49:59;;;;;;;8.73;3.60;;;;;;;16.82;70.79;101483.63;5101254;28;20207;-80
2023/10/05 09:52:31;;;;;;;6.53;3.07;;;;;;;16.80;70.21;101472.13;5110211;28;20217;-81
2023/10/05 09:54:59;;;;;;;11.27;3.73;;;;;;;16.82;70.73;101475.56;5109505;28;20216;-81
2023/10/05 09:57:26;;;;;;;7.60;3.87;;;;;;;16.91;71.69;101481.06;5110522;28;20229;-80
2023/10/05 09:59:59;;;;;;;7.30;4.03;;;;;;;16.99;71.50;101484.06;5102157;28;20235;-80
2023/10/05 10:02:33;;;;;;;7.30;3.47;;;;;;;17.11;71.54;101478.69;5103279;28;20206;-82
2023/10/05 10:05:04;;;;;;;6.23;3.40;;;;;;;17.20;69.92;101481.50;5102434;28;20268;-80
2023/10/05 10:07:32;;;;;;;8.00;3.40;;;;;;;17.27;70.14;101479.19;5107940;28;20201;-81
2023/10/05 10:10:00;;;;;;;7.50;3.53;;;;;;;17.29;69.29;101485.31;5110982;28;20275;-80
2023/10/05 10:12:33;;;;;;;6.30;3.20;;;;;;;17.34;69.46;101473.22;5105971;28;20209;-81
2023/10/05 10:15:00;;;;;;;6.27;3.10;;;;;;;17.39;68.16;101480.06;5107612;28;20233;-80
2023/10/05 10:17:35;;;;;;;9.17;3.33;;;;;;;17.40;68.07;101471.00;5108322;28;20196;-80
2023/10/05 10:20:17;;;;;;;3.80;2.50;;;;;;;17.41;67.25;101470.03;5108837;28;20232;-80
2023/10/05 10:22:50;;;;;;;9.03;2.87;;;;;;;17.41;67.22;101478.97;5108724;28;20286;-80
2023/10/05 10:25:38;;;;;;;5.30;2.63;;;;;;;17.42;67.52;101469.06;5106278;28;20235;-80
2023/10/05 10:28:16;;;;;;;6.13;2.60;;;;;;;17.43;67.04;101468.06;5101405;28;20758;-80
2023/10/05 10:31:16;;;;;;;6.33;2.40;;;;;;;17.45;67.52;101482.28;5102782;28;20204;-81
2023/10/05 10:33:50;;;;;;;6.93;2.60;;;;;;;17.45;66.50;101471.50;5101321;28;20299;-81
2023/10/05 10:36:21;;;;;;;4.40;2.67;;;;;;;17.46;67.24;101471.38;5105652;28;20350;-80
2023/10/05 10:38:50;;;;;;;5.80;2.67;;;;;;;17.52;67.52;101476.31;5105813;28;20211;-80
2023/10/05 10:41:18;;;;;;;6.47;2.17;;;;;;;17.60;66.80;101471.16;5106090;28;22191;-80
2023/10/05 10:43:49;;;;;;;5.37;2.07;;;;;;;17.63;65.66;101475.44;5108719;28;20208;-80
2023/10/05 10:46:30;;;;;;;6.17;2.40;;;;;;;17.64;65.91;101483.44;5107205;28;20245;-80
2023/10/05 10:48:59;;;;;;;8.20;2.43;;;;;;;17.71;66.61;101494.59;5104121;28;20232;-80
2023/10/05 10:51:31;;;;;;;6.80;2.70;;;;;;;17.76;66.13;101491.50;5106243;28;20226;-80
2023/10/05 10:53:59;;;;;;;5.83;2.37;;;;;;;17.71;65.87;101489.19;5103719;28;20194;-80
2023/10/05 10:56:29;;;;;;;6.17;2.30;;;;;;;17.70;65.94;101498.25;5100468;28;20226;-78
2023/10/05 10:59:08;;;;;;;5.83;2.37;;;;;;;17.69;66.55;101494.69;5105776;28;20247;-79
2023/10/05 11:01:41;;;;;;;4.43;1.87;;;;;;;17.74;66.32;101488.06;5105472;28;20221;-78
2023/10/05 11:04:23;;;;;;;5.37;2.23;;;;;;;17.77;65.54;101491.38;5103387;28;20803;-78
2023/10/05 11:06:51;;;;;;;6.40;2.43;;;;;;;17.78;66.20;101489.53;5106066;28;20249;-79
2023/10/05 11:09:19;;;;;;;8.43;2.33;;;;;;;17.84;66.49;101486.38;5101966;28;20288;-79
2023/10/05 11:11:45;;;;;;;6.50;2.20;;;;;;;17.83;65.70;101488.19;5108350;28;20734;-79
2023/10/05 11:14:21;;;;;;;5.90;2.10;;;;;;;17.86;66.27;101482.56;5102620;28;20262;-79
2023/10/05 11:16:59;;;;;;;5.03;1.90;;;;;;;17.87;66.54;101489.69;5102678;28;20229;-80
2023/10/05 11:19:36;;;;;;;7.23;2.33;;;;;;;17.90;65.92;101485.88;5102315;28;20222;-80
2023/10/05 11:22:04;;;;;;;6.73;2.00;;;;;;;17.89;66.21;101481.47;5102424;28;20245;-80
2023/10/05 11:24:31;;;;;;;7.50;2.10;;;;;;;17.87;65.61;101486.97;5104903;28;20248;-79
2023/10/05 11:27:05;;;;;;;5.73;1.83;;;;;;;17.85;65.83;101494.31;5102650;28;20236;-80
2023/10/05 11:29:42;;;;;;;5.93;1.87;;;;;;;17.81;65.81;101495.53;5109120;28;20328;-80
2023/10/05 11:32:12;;;;;;;4.40;2.20;;;;;;;17.76;65.65;101495.06;5106671;28;20206;-80
2023/10/05 11:34:43;;;;;;;6.50;2.30;;;;;;;17.72;66.39;101493.59;5104612;28;20213;-80
2023/10/05 11:37:15;;;;;;;5.23;2.27;;;;;;;17.68;66.82;101494.81;5103692;28;20192;-80